Time;durP1;ratioP1;P1;durP2;ratioP2;P2;SDS_P1;SDS_P2;PMS_P1;PMS_P2;Temp;Humidity;BMP_temperature;BMP_pressure;BME280_temperature;BME280_humidity;BME280_pressure;Samples;Min_cycle;Max_cycle;Signal;HPM_P1;HPM_P2
2021/12/19 00:01:07;;;;;;;13.10;8.73;;;;;;;5.19;100.00;103628.22;5009426;28;20021;-61
2021/12/19 00:09:01;;;;;;;12.30;9.43;;;;;;;5.18;100.00;103622.16;5013039;28;20099;-59
2021/12/19 00:11:27;;;;;;;11.60;7.97;;;;;;;5.18;100.00;103617.00;5012589;28;20352;-60
2021/12/19 00:13:53;;;;;;;12.35;9.45;;;;;;;5.19;100.00;103623.97;5013084;28;20303;-61
2021/12/19 00:16:19;;;;;;;13.00;10.07;;;;;;;5.19;100.00;103618.84;5012415;28;20040;-61
2021/12/19 00:18:47;;;;;;;16.10;12.40;;;;;;;5.19;100.00;103608.56;5012834;28;20133;-61
2021/12/19 00:21:15;;;;;;;18.45;13.13;;;;;;;5.20;100.00;103609.47;5012163;28;20034;-60
2021/12/19 00:23:41;;;;;;;20.27;14.20;;;;;;;5.19;100.00;103608.56;5012394;28;20018;-61
2021/12/19 00:26:08;;;;;;;21.53;14.90;;;;;;;5.19;100.00;103611.13;5012369;28;20052;-61
2021/12/19 00:28:34;;;;;;;19.27;15.05;;;;;;;5.20;100.00;103605.22;5012373;28;20037;-61
2021/12/19 00:31:00;;;;;;;19.80;14.55;;;;;;;5.20;100.00;103609.47;5012524;28;20029;-61
2021/12/19 00:33:25;;;;;;;23.42;16.10;;;;;;;5.19;100.00;103598.28;5011801;28;20030;-61
2021/12/19 00:35:51;;;;;;;24.45;15.73;;;;;;;5.20;100.00;103594.03;5012408;28;20107;-60
2021/12/19 00:38:16;;;;;;;21.58;15.50;;;;;;;5.19;100.00;103600.84;5012365;28;20041;-61
2021/12/19 00:40:43;;;;;;;24.98;17.30;;;;;;;5.20;100.00;103594.94;5012393;28;20037;-61
2021/12/19 00:43:11;;;;;;;23.23;15.25;;;;;;;5.20;100.00;103594.03;5012253;28;20393;-61
2021/12/19 00:45:40;;;;;;;23.65;15.13;;;;;;;5.20;100.00;103597.50;5011836;28;20058;-61
2021/12/19 00:48:07;;;;;;;23.73;15.55;;;;;;;5.20;100.00;103600.06;5012449;28;20034;-61
2021/12/19 00:50:35;;;;;;;24.23;14.20;;;;;;;5.20;100.00;103594.03;5011455;28;20029;-61
2021/12/19 00:53:00;;;;;;;24.02;15.15;;;;;;;5.19;100.00;103588.00;5010347;28;20402;-60
2021/12/19 00:55:27;;;;;;;25.02;15.30;;;;;;;5.20;100.00;103594.03;5011809;28;20026;-60
2021/12/19 00:57:54;;;;;;;25.55;15.68;;;;;;;5.19;100.00;103599.94;5011856;28;20030;-61
2021/12/19 01:00:24;;;;;;;23.70;15.10;;;;;;;5.18;100.00;103586.16;5011988;28;20112;-60
2021/12/19 01:02:54;;;;;;;26.48;16.30;;;;;;;5.17;100.00;103584.34;5010006;28;20034;-61
2021/12/19 01:05:20;;;;;;;27.92;16.83;;;;;;;5.18;100.00;103585.28;5011927;28;20044;-61
2021/12/19 01:07:46;;;;;;;25.33;16.65;;;;;;;5.16;100.00;103596.28;5012095;28;20030;-62
2021/12/19 01:10:11;;;;;;;27.20;16.73;;;;;;;5.15;100.00;103578.16;5011284;28;20033;-60
2021/12/19 01:12:38;;;;;;;25.85;15.93;;;;;;;5.15;100.00;103580.72;5011667;28;20087;-61
2021/12/19 01:15:09;;;;;;;27.48;15.32;;;;;;;5.15;100.00;103585.88;5010930;28;20030;-60
2021/12/19 01:17:35;;;;;;;23.73;15.10;;;;;;;5.14;100.00;103578.91;5011581;28;20037;-61
2021/12/19 01:20:01;;;;;;;25.38;13.45;;;;;;;5.13;100.00;103571.94;5011195;28;20030;-61
2021/12/19 01:22:27;;;;;;;24.52;12.52;;;;;;;5.12;100.00;103576.19;5011012;28;20141;-60
2021/12/19 01:24:52;;;;;;;22.42;12.07;;;;;;;5.11;100.00;103578.63;5011152;28;20037;-61
2021/12/19 01:27:17;;;;;;;22.70;13.32;;;;;;;5.10;100.00;103574.22;5010933;28;20030;-61
2021/12/19 01:29:43;;;;;;;24.33;13.85;;;;;;;5.09;100.00;103570.72;5011491;28;20057;-60
2021/12/19 01:32:08;;;;;;;24.08;14.02;;;;;;;5.09;100.00;103581.00;5011416;28;20137;-62
2021/12/19 01:34:33;;;;;;;28.45;15.23;;;;;;;5.09;100.00;103572.41;5011966;28;20052;-61
2021/12/19 01:36:59;;;;;;;28.35;15.35;;;;;;;5.09;100.00;103570.72;5010896;28;20033;-62
2021/12/19 01:39:24;;;;;;;27.73;14.88;;;;;;;5.09;100.00;103564.72;5011015;28;20367;-61
2021/12/19 01:41:52;;;;;;;28.67;15.80;;;;;;;5.09;100.00;103567.28;5009504;28;20036;-59
2021/12/19 01:44:19;;;;;;;27.70;15.60;;;;;;;5.08;100.00;103568.94;5009808;28;20429;-59
2021/12/19 01:46:46;;;;;;;27.33;15.13;;;;;;;5.09;100.00;103569.84;5010989;28;20110;-61
2021/12/19 01:49:13;;;;;;;26.83;13.82;;;;;;;5.09;100.00;103569.84;5011033;28;20537;-61
2021/12/19 01:51:38;;;;;;;28.33;15.20;;;;;;;5.07;100.00;103559.41;5010307;28;20374;-60
2021/12/19 01:54:04;;;;;;;25.88;14.73;;;;;;;5.07;100.00;103550.78;5010847;28;20029;-60
2021/12/19 01:56:31;;;;;;;29.58;15.32;;;;;;;5.05;100.00;103559.25;5010801;28;20030;-61
2021/12/19 01:58:57;;;;;;;26.02;15.35;;;;;;;5.05;100.00;103560.94;5010770;28;20076;-60
2021/12/19 02:01:23;;;;;;;29.38;14.65;;;;;;;5.05;100.00;103561.81;5010974;28;20029;-61
2021/12/19 02:03:48;;;;;;;30.25;14.40;;;;;;;5.03;100.00;103555.63;5010415;28;20478;-61
2021/12/19 02:06:13;;;;;;;29.23;14.77;;;;;;;5.03;100.00;103550.50;5011009;28;20026;-61
2021/12/19 02:08:40;;;;;;;28.98;15.07;;;;;;;5.02;100.00;103542.59;5010989;28;20041;-60
2021/12/19 02:11:05;;;;;;;31.00;15.32;;;;;;;5.01;100.00;103552.00;5006784;28;20084;-60
2021/12/19 02:13:30;;;;;;;27.83;14.35;;;;;;;5.00;100.00;103545.03;5007588;28;20382;-62
2021/12/19 02:15:56;;;;;;;30.85;14.48;;;;;;;4.99;100.00;103543.22;5010440;28;20045;-60
2021/12/19 02:18:22;;;;;;;32.92;16.77;;;;;;;4.99;100.00;103539.75;5007972;28;20025;-60
2021/12/19 02:20:52;;;;;;;30.90;16.77;;;;;;;4.98;100.00;103545.66;5010330;28;20601;-61
2021/12/19 02:23:19;;;;;;;32.22;16.60;;;;;;;4.96;100.00;103542.94;5009360;28;20041;-61
2021/12/19 02:25:45;;;;;;;33.28;17.48;;;;;;;4.97;100.00;103546.38;5004909;28;20489;-61
2021/12/19 02:28:10;;;;;;;33.67;17.80;;;;;;;4.97;100.00;103537.03;5001972;28;20025;-60
2021/12/19 02:30:36;;;;;;;38.78;18.02;;;;;;;4.95;100.00;103535.97;5006795;28;20489;-60
2021/12/19 02:33:06;;;;;;;30.50;16.35;;;;;;;4.96;100.00;103537.81;5004428;28;20708;-61
2021/12/19 02:35:34;;;;;;;35.50;18.05;;;;;;;4.95;100.00;103528.25;5003182;28;20029;-61
2021/12/19 02:48:09;;;;;;;41.47;18.98;;;;;;;4.93;100.00;103524.63;5005745;28;20120;-60
2021/12/19 02:48:46;;;;;;;40.63;19.90;;;;;;;4.93;100.00;103520.41;5006909;28;20065;-61
2021/12/19 02:51:11;;;;;;;40.00;20.30;;;;;;;4.92;100.00;103510.88;5009502;28;20034;-60
2021/12/19 02:53:39;;;;;;;39.72;21.02;;;;;;;4.92;100.00;103510.88;5006611;28;20438;-60
2021/12/19 02:56:07;;;;;;;41.75;21.00;;;;;;;4.91;100.00;103505.59;5009907;28;20439;-60
2021/12/19 02:58:34;;;;;;;38.03;18.75;;;;;;;4.91;100.00;103503.03;5009972;28;20478;-61
2021/12/19 03:01:04;;;;;;;37.67;18.52;;;;;;;4.89;100.00;103505.41;5009410;28;20116;-61
2021/12/19 03:03:30;;;;;;;39.35;18.20;;;;;;;4.89;100.00;103510.56;5009886;28;20083;-61
2021/12/19 03:05:56;;;;;;;37.47;18.75;;;;;;;4.86;100.00;103499.06;5009854;28;20462;-61
2021/12/19 03:08:21;;;;;;;38.72;18.23;;;;;;;4.87;100.00;103500.91;5009823;28;20470;-61
2021/12/19 03:18:43;;;;;;;37.40;17.90;;;;;;;4.83;100.00;103496.22;5007393;28;20073;-59
2021/12/19 03:21:13;;;;;;;40.70;19.27;;;;;;;4.82;100.00;103492.75;5009357;28;20069;-60
2021/12/19 03:23:39;;;;;;;40.10;20.05;;;;;;;4.82;100.00;103490.19;5005304;28;20084;-61
2021/12/19 03:26:04;;;;;;;40.28;19.63;;;;;;;4.83;100.00;103480.78;5003836;28;20029;-61
2021/12/19 03:28:30;;;;;;;37.65;18.25;;;;;;;4.82;100.00;103486.69;5006646;28;20044;-61
2021/12/19 03:30:55;;;;;;;39.15;19.10;;;;;;;4.80;100.00;103473.72;5002803;28;20605;-61
2021/12/19 03:33:20;;;;;;;41.90;19.60;;;;;;;4.79;100.00;103475.38;5007301;28;20033;-60
2021/12/19 03:35:47;;;;;;;39.67;19.42;;;;;;;4.78;100.00;103471.00;5003880;28;20497;-60
2021/12/19 03:38:14;;;;;;;40.97;21.23;;;;;;;4.78;100.00;103460.72;5011761;28;20057;-61
2021/12/19 03:40:44;;;;;;;39.95;20.13;;;;;;;4.79;100.00;103469.31;5013072;28;20322;-60
2021/12/19 03:43:17;;;;;;;40.92;19.02;;;;;;;4.78;100.00;103471.00;5012778;28;20075;-59
2021/12/19 03:45:44;;;;;;;41.15;21.08;;;;;;;4.78;100.00;103470.06;5011556;28;20050;-61
2021/12/19 03:48:13;;;;;;;44.15;19.67;;;;;;;4.77;100.00;103468.25;5012385;28;21110;-61
2021/12/19 03:50:44;;;;;;;39.03;18.85;;;;;;;4.76;100.00;103459.66;5012152;28;20471;-61
2021/12/19 03:53:09;;;;;;;;;;;;;;;4.75;100.00;103465.53;5011201;28;20349;-61
2021/12/19 03:55:35;;;;;;;37.35;16.35;;;;;;;4.75;100.00;103450.13;5012436;28;19914;-61
2021/12/19 03:58:02;;;;;;;41.95;18.35;;;;;;;4.75;100.00;103455.25;5009410;28;20350;-59
2021/12/19 04:00:28;;;;;;;41.85;17.80;;;;;;;4.74;100.00;103449.97;5012326;28;20057;-61
2021/12/19 04:03:00;;;;;;;38.40;18.48;;;;;;;4.74;100.00;103456.03;5006258;28;20156;-61
2021/12/19 04:05:27;;;;;;;39.80;18.33;;;;;;;4.72;100.00;103452.41;5006233;28;20490;-61
2021/12/19 04:07:53;;;;;;;39.40;18.48;;;;;;;4.72;100.00;103454.97;5012473;28;20022;-61
2021/12/19 04:10:21;;;;;;;34.42;18.48;;;;;;;4.71;100.00;103453.16;5006878;28;20120;-60
2021/12/19 04:12:46;;;;;;;36.78;17.45;;;;;;;4.70;100.00;103451.31;5011735;28;20201;-61
2021/12/19 04:15:11;;;;;;;37.30;17.75;;;;;;;4.73;100.00;103450.75;5008209;28;20033;-61
2021/12/19 04:17:38;;;;;;;37.03;19.67;;;;;;;4.71;100.00;103448.03;5006576;28;20058;-61
2021/12/19 04:20:04;;;;;;;35.92;17.75;;;;;;;4.70;100.00;103438.47;5006284;28;20032;-61
2021/12/19 04:22:29;;;;;;;30.98;15.07;;;;;;;4.69;100.00;103437.56;5010413;28;20034;-60
2021/12/19 04:24:55;;;;;;;27.45;12.93;;;;;;;4.66;100.00;103428.66;5011805;28;20033;-60
2021/12/19 04:27:20;;;;;;;22.40;11.75;;;;;;;4.63;100.00;103430.94;5011668;28;20034;-61
2021/12/19 04:29:46;;;;;;;21.38;10.02;;;;;;;4.60;100.00;103436.69;5012157;28;20113;-60
2021/12/19 04:32:12;;;;;;;18.20;9.57;;;;;;;4.56;100.00;103432.00;5012092;28;20544;-61
2021/12/19 04:34:38;;;;;;;20.10;10.50;;;;;;;4.52;100.00;103417.03;5011253;28;20057;-60
2021/12/19 04:37:19;;;;;;;18.95;10.48;;;;;;;4.50;100.00;103421.09;5012060;28;20025;-60
2021/12/19 04:39:56;;;;;;;21.65;10.27;;;;;;;4.48;100.00;103426.09;5010428;28;20406;-60
2021/12/19 04:58:34;;;;;;;16.42;8.13;;;;;;;4.35;100.00;103399.97;5011088;28;20044;-60
2021/12/19 05:15:12;;;;;;;17.45;9.13;;;;;;;4.30;100.00;103392.72;5005768;28;20134;-60
2021/12/19 05:17:38;;;;;;;15.83;8.33;;;;;;;4.31;100.00;103397.13;5004430;28;20120;-60
2021/12/19 05:22:33;;;;;;;16.83;9.00;;;;;;;4.32;100.00;103400.56;5002564;28;20030;-60
2021/12/19 05:25:12;;;;;;;16.63;9.10;;;;;;;4.31;100.00;103393.63;5002116;28;20042;-61
2021/12/19 05:27:41;;;;;;;21.20;9.63;;;;;;;4.30;100.00;103397.84;5001066;28;20572;-60
2021/12/19 05:30:06;;;;;;;16.53;9.30;;;;;;;4.29;100.00;103398.63;4991901;28;20665;-61
2021/12/19 05:32:32;;;;;;;24.75;9.60;;;;;;;4.30;100.00;103402.97;4995173;28;20125;-61
2021/12/19 05:34:57;;;;;;;21.23;9.70;;;;;;;4.30;100.00;103399.53;5003031;28;20766;-61
2021/12/19 05:45:35;;;;;;;25.60;11.20;;;;;;;4.31;100.00;103386.84;5010356;28;20073;-61
2021/12/19 05:48:00;;;;;;;22.27;10.13;;;;;;;4.31;100.00;103386.84;5010369;28;20029;-61
2021/12/19 05:50:25;;;;;;;25.70;11.50;;;;;;;4.31;100.00;103393.63;5010256;28;20119;-61
2021/12/19 05:52:52;;;;;;;27.63;11.75;;;;;;;4.31;100.00;103391.97;5010222;28;20071;-60
2021/12/19 05:55:17;;;;;;;21.67;9.75;;;;;;;4.31;100.00;103384.28;5010538;28;20030;-61
2021/12/19 05:57:43;;;;;;;20.93;9.10;;;;;;;4.31;100.00;103384.28;5009876;28;20045;-61
2021/12/19 06:00:13;;;;;;;19.90;9.20;;;;;;;4.29;100.00;103367.81;5007467;28;20474;-60
2021/12/19 06:02:40;;;;;;;18.50;9.07;;;;;;;4.28;100.00;103368.53;5009825;28;20029;-61
2021/12/19 06:05:07;;;;;;;18.67;7.80;;;;;;;4.28;100.00;103368.53;5009979;28;20548;-60
2021/12/19 06:07:32;;;;;;;18.80;8.17;;;;;;;4.28;100.00;103372.78;5010182;28;20025;-61
2021/12/19 06:09:59;;;;;;;16.03;7.47;;;;;;;4.26;100.00;103362.38;5009331;28;20484;-60
2021/12/19 06:12:24;;;;;;;17.93;8.30;;;;;;;4.28;100.00;103371.09;5010025;28;20667;-60
2021/12/19 06:14:50;;;;;;;13.75;7.25;;;;;;;4.27;100.00;103364.19;5009934;28;20057;-60
2021/12/19 06:17:15;;;;;;;15.57;7.60;;;;;;;4.26;100.00;103359.81;5009201;28;20037;-61
2021/12/19 06:19:40;;;;;;;16.33;7.53;;;;;;;4.27;100.00;103364.19;5009914;28;20021;-60
2021/12/19 06:22:06;;;;;;;13.77;7.30;;;;;;;4.27;100.00;103371.88;5009375;28;20044;-60
2021/12/19 06:24:33;;;;;;;14.73;6.97;;;;;;;4.28;100.00;103371.09;5006448;28;20484;-60
2021/12/19 06:26:59;;;;;;;16.30;8.87;;;;;;;4.27;100.00;103382.16;5008831;28;20057;-60
2021/12/19 06:29:29;;;;;;;15.60;8.80;;;;;;;4.29;100.00;103379.72;5009475;28;20376;-60
2021/12/19 06:31:55;;;;;;;16.73;8.37;;;;;;;4.28;100.00;103373.69;5009725;28;20022;-61
2021/12/19 06:34:20;;;;;;;17.93;8.80;;;;;;;4.29;100.00;103367.81;5007479;28;20033;-60
2021/12/19 06:36:46;;;;;;;18.17;8.70;;;;;;;4.27;100.00;103361.63;5009549;28;20474;-61
2021/12/19 06:39:11;;;;;;;17.43;8.70;;;;;;;4.28;100.00;103355.72;5009131;28;20025;-61
2021/12/19 06:41:36;;;;;;;18.63;9.40;;;;;;;4.29;100.00;103356.63;5009613;28;20034;-61
2021/12/19 06:44:03;;;;;;;17.17;9.53;;;;;;;4.28;100.00;103348.00;5009930;28;20032;-60
2021/12/19 06:46:30;;;;;;;16.70;8.55;;;;;;;4.28;100.00;103348.00;5008823;28;20030;-61
2021/12/19 06:48:56;;;;;;;16.03;8.93;;;;;;;4.28;100.00;103345.44;5009362;28;20068;-61
2021/12/19 06:51:22;;;;;;;17.80;9.17;;;;;;;4.28;100.00;103342.00;5004660;28;20113;-61
2021/12/19 06:53:47;;;;;;;19.83;9.67;;;;;;;4.29;100.00;103330.94;5009450;28;20026;-60
2021/12/19 06:56:13;;;;;;;19.65;10.38;;;;;;;4.29;100.00;103339.56;5009193;28;20026;-61
2021/12/19 06:58:39;;;;;;;17.50;10.00;;;;;;;4.28;100.00;103317.19;5008776;28;20117;-60
2021/12/19 07:01:04;;;;;;;18.27;10.10;;;;;;;4.31;100.00;103321.75;5009293;28;20116;-61
2021/12/19 07:03:29;;;;;;;18.10;11.07;;;;;;;4.30;100.00;103318.25;5008788;28;20470;-61
2021/12/19 07:05:55;;;;;;;17.87;10.30;;;;;;;4.29;100.00;103324.16;5009460;28;20425;-61
2021/12/19 07:08:21;;;;;;;18.20;11.43;;;;;;;4.30;100.00;103320.81;5008725;28;20458;-60
2021/12/19 07:10:47;;;;;;;19.65;11.20;;;;;;;4.31;100.00;103312.38;5008745;28;20033;-60
2021/12/19 07:13:18;;;;;;;20.92;11.85;;;;;;;4.31;100.00;103317.53;5008984;28;20026;-61
2021/12/19 07:15:44;;;;;;;;;;;;;;;4.33;100.00;103313.41;5009455;28;20038;-61
2021/12/19 07:18:09;;;;;;;23.00;12.17;;;;;;;4.34;100.00;103314.34;5009083;28;20293;-61
2021/12/19 07:20:34;;;;;;;20.80;12.53;;;;;;;4.33;100.00;103310.84;5007841;28;20117;-61
2021/12/19 07:23:00;;;;;;;22.23;12.77;;;;;;;4.36;100.00;103324.75;5004646;28;20025;-61
2021/12/19 07:25:25;;;;;;;21.07;13.33;;;;;;;4.35;100.00;103323.88;5008283;28;20037;-61
2021/12/19 07:27:51;;;;;;;26.10;12.73;;;;;;;4.36;100.00;103315.38;5008010;28;20042;-60
2021/12/19 07:30:16;;;;;;;26.67;13.35;;;;;;;4.37;100.00;103316.31;5006211;28;20026;-61
2021/12/19 07:32:42;;;;;;;24.10;13.53;;;;;;;4.38;100.00;103313.88;5004790;28;20036;-60
2021/12/19 07:35:09;;;;;;;25.63;14.93;;;;;;;4.39;100.00;103313.13;5008199;28;20432;-60
2021/12/19 07:37:37;;;;;;;27.15;14.40;;;;;;;4.39;100.00;103307.97;5003901;28;20289;-60
2021/12/19 07:40:14;;;;;;;25.38;14.85;;;;;;;4.40;100.00;103311.47;5002536;28;20034;-60
2021/12/19 07:42:40;;;;;;;26.13;14.47;;;;;;;4.41;100.00;103309.03;5005966;28;20030;-60
2021/12/19 07:45:06;;;;;;;26.90;14.93;;;;;;;4.42;100.00;103309.94;5006230;28;20077;-60
2021/12/19 07:47:31;;;;;;;24.10;13.90;;;;;;;4.42;100.00;103303.16;5006013;28;20483;-60
2021/12/19 07:49:56;;;;;;;24.60;13.85;;;;;;;4.44;100.00;103303.31;5004942;28;20041;-60
2021/12/19 07:52:22;;;;;;;25.20;15.10;;;;;;;4.44;100.00;103298.19;5006109;28;20105;-60
2021/12/19 07:54:47;;;;;;;26.47;14.73;;;;;;;4.46;100.00;103295.75;5003812;28;20029;-60
2021/12/19 07:57:12;;;;;;;28.65;15.13;;;;;;;4.46;100.00;103291.53;5003792;28;20034;-60
2021/12/19 07:59:37;;;;;;;28.48;15.00;;;;;;;4.46;100.00;103299.22;5005822;28;20498;-60
2021/12/19 08:02:04;;;;;;;26.05;14.48;;;;;;;4.49;100.00;103291.81;5000524;28;20029;-60
2021/12/19 08:04:30;;;;;;;27.35;15.07;;;;;;;4.49;100.00;103296.94;5008434;28;20679;-59
2021/12/19 08:06:55;;;;;;;28.33;15.30;;;;;;;4.49;100.00;103296.94;5005272;28;20026;-59
2021/12/19 08:09:35;;;;;;;31.70;16.23;;;;;;;4.50;100.00;103293.59;5008134;28;20045;-60
2021/12/19 08:12:03;;;;;;;27.10;15.23;;;;;;;4.51;100.00;103287.75;5002759;28;20116;-60
2021/12/19 08:14:29;;;;;;;29.88;16.27;;;;;;;4.53;100.00;103282.75;5008117;28;20080;-60
2021/12/19 08:16:54;;;;;;;28.13;14.77;;;;;;;4.53;100.00;103293.91;5006132;28;20026;-60
2021/12/19 08:19:19;;;;;;;23.15;13.90;;;;;;;4.55;100.00;103286.38;5007902;28;20095;-59
2021/12/19 08:21:45;;;;;;;21.63;14.23;;;;;;;4.54;100.00;103285.44;5008201;28;20459;-60
2021/12/19 08:24:11;;;;;;;23.90;14.13;;;;;;;4.58;100.00;103281.53;5009316;28;20033;-60
2021/12/19 08:26:39;;;;;;;24.00;14.25;;;;;;;4.59;100.00;103277.31;5011624;28;20502;-60
2021/12/19 08:29:04;;;;;;;28.08;13.73;;;;;;;4.60;100.00;103268.81;5010417;28;20065;-61
2021/12/19 08:31:30;;;;;;;23.75;13.85;;;;;;;4.62;100.00;103280.16;5011824;28;20469;-60
2021/12/19 08:33:56;;;;;;;23.00;13.25;;;;;;;4.63;100.00;103279.38;5010993;28;20029;-60
2021/12/19 08:36:21;;;;;;;20.95;12.55;;;;;;;4.64;100.00;103284.66;5010997;28;20040;-60
2021/12/19 08:38:47;;;;;;;20.52;12.32;;;;;;;4.64;100.00;103276.06;5008434;28;20042;-60
2021/12/19 08:41:13;;;;;;;22.10;12.73;;;;;;;4.67;100.00;103276.34;5011153;28;20076;-60
2021/12/19 08:43:38;;;;;;;19.35;12.18;;;;;;;4.68;100.00;103275.59;5011404;28;20469;-60
2021/12/19 08:46:06;;;;;;;17.02;11.63;;;;;;;4.69;100.00;103277.41;5011224;28;20045;-60
2021/12/19 08:48:32;;;;;;;17.17;11.30;;;;;;;4.72;100.00;103277.69;5011331;28;20504;-60
2021/12/19 08:50:57;;;;;;;20.33;12.55;;;;;;;4.74;100.00;103276.19;5011217;28;20121;-60
2021/12/19 08:53:23;;;;;;;18.42;11.07;;;;;;;4.76;100.00;103272.09;5011172;28;20034;-60
2021/12/19 08:55:48;;;;;;;17.40;10.85;;;;;;;4.78;100.00;103265.44;5011461;28;20029;-60
2021/12/19 08:58:14;;;;;;;16.97;10.80;;;;;;;4.81;100.00;103264.81;5011603;28;20436;-60
2021/12/19 09:00:39;;;;;;;14.70;10.18;;;;;;;4.82;100.00;103265.72;5011034;28;20091;-59
2021/12/19 09:03:05;;;;;;;15.48;8.95;;;;;;;4.86;100.00;103265.25;5011078;28;20030;-60
2021/12/19 09:05:31;;;;;;;13.40;8.77;;;;;;;4.87;100.00;103261.94;5011818;28;20030;-60
2021/12/19 09:07:57;;;;;;;13.13;9.13;;;;;;;4.88;100.00;103262.06;5011215;28;20038;-61
2021/12/19 09:10:23;;;;;;;15.13;8.90;;;;;;;4.89;100.00;103260.41;5010985;28;20108;-59
2021/12/19 09:12:49;;;;;;;13.35;8.43;;;;;;;4.92;100.00;103263.25;5010731;28;20105;-60
2021/12/19 09:15:14;;;;;;;14.88;9.23;;;;;;;4.93;100.00;103254.78;5009497;28;20297;-60
2021/12/19 09:17:40;;;;;;;11.45;7.38;;;;;;;4.93;100.00;103255.69;5011052;28;20034;-61
2021/12/19 09:20:08;;;;;;;12.70;7.78;;;;;;;4.96;100.00;103264.47;5010835;28;20037;-60
2021/12/19 09:22:34;;;;;;;9.93;7.82;;;;;;;4.96;100.00;103257.66;5004666;28;20386;-60
2021/12/19 09:25:00;;;;;;;13.68;9.15;;;;;;;4.97;100.00;103255.97;5011058;28;20036;-60
2021/12/19 09:27:26;;;;;;;11.32;8.13;;;;;;;4.98;100.00;103252.66;5005511;28;20053;-60
2021/12/19 09:29:52;;;;;;;11.95;7.80;;;;;;;4.98;100.00;103256.16;5010514;28;20029;-60
2021/12/19 09:32:17;;;;;;;11.32;7.90;;;;;;;5.00;100.00;103252.03;5010291;28;20037;-61
2021/12/19 09:34:43;;;;;;;12.82;7.57;;;;;;;5.01;100.00;103253.84;5010669;28;20030;-62
2021/12/19 09:37:08;;;;;;;13.38;7.95;;;;;;;5.02;100.00;103252.16;5010625;28;20112;-61
2021/12/19 09:39:33;;;;;;;12.07;7.82;;;;;;;5.03;100.00;103262.63;5010161;28;20032;-60
2021/12/19 09:42:08;;;;;;;11.57;7.40;;;;;;;5.04;100.00;103254.13;5010804;28;20398;-61
2021/12/19 09:44:34;;;;;;;14.68;8.57;;;;;;;5.05;100.00;103250.78;5009482;28;20046;-60
2021/12/19 09:47:01;;;;;;;11.60;8.13;;;;;;;5.08;100.00;103251.84;5010930;28;20036;-61
2021/12/19 09:49:27;;;;;;;11.88;7.97;;;;;;;5.09;100.00;103251.09;5010127;28;20026;-61
2021/12/19 09:51:52;;;;;;;11.38;7.53;;;;;;;5.10;100.00;103252.91;5010623;28;20037;-61
2021/12/19 09:54:18;;;;;;;12.80;8.07;;;;;;;5.11;100.00;103244.44;5010325;28;20025;-60
2021/12/19 09:56:44;;;;;;;12.23;8.63;;;;;;;5.12;100.00;103243.66;5010661;28;20088;-61
2021/12/19 09:59:18;;;;;;;13.63;8.95;;;;;;;5.15;100.00;103251.66;5009720;28;20072;-61
2021/12/19 10:01:44;;;;;;;16.02;9.63;;;;;;;5.14;100.00;103255.91;5008374;28;20030;-61
2021/12/19 10:04:33;;;;;;;15.10;9.07;;;;;;;5.17;100.00;103255.28;5009942;28;20026;-60
2021/12/19 10:07:18;;;;;;;14.85;9.80;;;;;;;5.18;100.00;103251.94;5009877;28;20040;-60
2021/12/19 10:10:10;;;;;;;17.67;10.07;;;;;;;5.18;100.00;103251.94;5006376;28;20029;-61
2021/12/19 10:12:48;;;;;;;15.65;10.45;;;;;;;5.19;100.00;103246.03;5009178;28;20723;-60
2021/12/19 10:15:18;;;;;;;15.07;10.38;;;;;;;5.20;100.00;103247.84;5009655;28;20033;-61
2021/12/19 10:17:44;;;;;;;15.55;10.35;;;;;;;5.23;100.00;103244.66;4998165;28;20045;-61
2021/12/19 10:20:12;;;;;;;16.90;10.90;;;;;;;5.23;100.00;103240.44;5009470;28;20029;-61
2021/12/19 10:22:43;;;;;;;14.20;10.43;;;;;;;5.25;100.00;103233.75;5009424;28;20138;-60
2021/12/19 10:25:11;;;;;;;15.40;10.57;;;;;;;5.26;100.00;103227.84;5010132;28;20108;-61
2021/12/19 10:27:38;;;;;;;17.30;10.45;;;;;;;5.27;100.00;103227.06;5010106;28;20033;-61
2021/12/19 10:30:08;;;;;;;14.73;9.68;;;;;;;5.29;100.00;103225.56;5010131;28;20783;-61
2021/12/19 10:32:34;;;;;;;13.50;10.43;;;;;;;5.31;100.00;103227.38;5010517;28;20068;-61
2021/12/19 10:35:18;;;;;;;13.63;10.23;;;;;;;5.30;100.00;103216.19;5010250;28;20057;-61
2021/12/19 10:37:44;;;;;;;13.30;10.20;;;;;;;5.32;100.00;103214.66;5009934;28;20030;-61
2021/12/19 10:40:10;;;;;;;14.52;11.02;;;;;;;5.33;100.00;103212.97;5008375;28;20030;-60
2021/12/19 10:42:49;;;;;;;14.75;10.10;;;;;;;5.34;100.00;103213.16;5008759;28;20402;-59
2021/12/19 10:45:32;;;;;;;15.77;11.45;;;;;;;5.35;100.00;103216.59;5009173;28;20046;-61
2021/12/19 10:48:16;;;;;;;16.95;11.25;;;;;;;5.37;100.00;103207.38;5003374;28;20029;-59
2021/12/19 10:50:56;;;;;;;14.32;10.73;;;;;;;5.39;100.00;103203.25;5009342;28;20112;-58
2021/12/19 10:53:34;;;;;;;15.70;9.82;;;;;;;5.39;100.00;103195.56;5009668;28;20056;-62
2021/12/19 10:56:02;;;;;;;15.70;9.60;;;;;;;5.41;100.00;103199.16;5009012;28;20083;-59
2021/12/19 10:58:31;;;;;;;12.68;9.95;;;;;;;5.43;100.00;103195.06;5008938;28;20030;-60
2021/12/19 11:01:03;;;;;;;12.65;9.15;;;;;;;5.44;100.00;103193.38;5009115;28;20034;-60
2021/12/19 11:03:38;;;;;;;14.88;9.55;;;;;;;5.42;100.00;103188.09;5008811;28;20160;-60
2021/12/19 11:06:21;;;;;;;11.25;8.55;;;;;;;5.42;100.00;103190.69;5003516;28;20037;-60
2021/12/19 11:08:47;;;;;;;10.07;8.13;;;;;;;5.42;100.00;103185.53;5008891;28;20037;-60
2021/12/19 11:11:29;;;;;;;10.60;7.30;;;;;;;5.41;100.00;103178.59;5009192;28;20065;-61
2021/12/19 11:13:55;;;;;;;11.38;8.32;;;;;;;5.41;100.00;103176.03;5007091;28;20100;-60
2021/12/19 11:16:21;;;;;;;12.93;8.23;;;;;;;5.40;100.00;103164.81;5009174;28;20037;-61
2021/12/19 11:18:46;;;;;;;8.93;6.88;;;;;;;5.40;100.00;103166.47;5008721;28;20026;-59
2021/12/19 11:21:12;;;;;;;8.80;6.93;;;;;;;5.42;100.00;103162.38;5009332;28;20100;-60
2021/12/19 11:23:37;;;;;;;9.55;7.22;;;;;;;5.42;100.00;103157.25;5008323;28;20041;-61
2021/12/19 11:26:03;;;;;;;10.57;7.65;;;;;;;5.45;100.00;103152.38;5008798;28;20072;-60
2021/12/19 11:28:28;;;;;;;9.85;7.18;;;;;;;5.46;100.00;103141.34;5009067;28;20037;-60
2021/12/19 11:30:54;;;;;;;10.25;7.07;;;;;;;5.47;100.00;103137.97;5008967;28;20026;-60
2021/12/19 11:33:31;;;;;;;9.88;7.20;;;;;;;5.48;100.00;103128.59;5009432;28;20030;-59
2021/12/19 11:35:58;;;;;;;10.02;6.78;;;;;;;5.50;100.00;103125.44;5005270;28;20037;-60
2021/12/19 11:38:24;;;;;;;9.60;7.15;;;;;;;5.50;100.00;103121.94;5008815;28;20041;-60
2021/12/19 11:40:51;;;;;;;10.65;6.93;;;;;;;5.50;100.00;103133.13;5005494;28;20025;-60
2021/12/19 11:43:17;;;;;;;11.35;6.82;;;;;;;5.51;100.00;103124.66;5008902;28;20120;-60
2021/12/19 11:45:52;;;;;;;9.35;6.63;;;;;;;5.51;100.00;103121.16;5008204;28;20181;-60
2021/12/19 11:50:56;;;;;;;8.93;6.80;;;;;;;5.52;100.00;103118.72;5007338;28;20061;-60
2021/12/19 11:53:28;;;;;;;10.52;6.65;;;;;;;5.51;100.00;103122.06;5008700;28;20026;-60
2021/12/19 11:55:55;;;;;;;8.05;6.53;;;;;;;5.52;100.00;103117.84;5007910;28;20389;-60
2021/12/19 11:58:29;;;;;;;8.90;6.43;;;;;;;5.53;100.00;103112.84;5010388;28;20381;-60
2021/12/19 12:01:03;;;;;;;6.57;5.15;;;;;;;5.53;100.00;103107.69;5011737;28;20034;-60
2021/12/19 12:03:38;;;;;;;4.78;3.75;;;;;;;5.53;100.00;103107.69;5006122;28;20038;-59
2021/12/19 12:06:21;;;;;;;5.68;3.83;;;;;;;5.54;100.00;103108.56;5010514;28;20033;-60
2021/12/19 12:09:06;;;;;;;5.13;3.70;;;;;;;5.52;100.00;103103.28;5010759;28;20120;-60
2021/12/19 12:11:33;;;;;;;5.07;3.80;;;;;;;5.53;100.00;103104.19;5011047;28;20112;-60
2021/12/19 12:14:22;;;;;;;4.75;4.00;;;;;;;5.55;100.00;103099.19;5010389;28;20018;-60
2021/12/19 12:16:56;;;;;;;5.13;4.10;;;;;;;5.56;100.00;103096.75;5009969;28;20505;-61
2021/12/19 12:19:42;;;;;;;5.60;4.80;;;;;;;5.58;100.00;103102.03;5012111;28;20429;-60
2021/12/19 12:22:40;;;;;;;5.13;4.63;;;;;;;5.59;100.00;103091.00;5010481;28;20033;-60